sensor_id;sensor_type;location;lat;lon;timestamp;P1;durP1;ratioP1;P2;durP2;ratioP2
8397;SDS011;4236;54.504;9.588;2022-08-11T00:02:23;15.77;;;14.10;;
8397;SDS011;4236;54.504;9.588;2022-08-11T00:04:53;17.00;;;13.67;;
8397;SDS011;4236;54.504;9.588;2022-08-11T00:07:24;17.80;;;14.50;;
8397;SDS011;4236;54.504;9.588;2022-08-11T00:09:54;16.70;;;15.30;;
8397;SDS011;4236;54.504;9.588;2022-08-11T00:12:24;16.10;;;14.37;;
8397;SDS011;4236;54.504;9.588;2022-08-11T00:14:56;14.40;;;13.10;;
8397;SDS011;4236;54.504;9.588;2022-08-11T00:17:26;18.63;;;16.57;;
8397;SDS011;4236;54.504;9.588;2022-08-11T00:19:59;16.57;;;15.00;;
8397;SDS011;4236;54.504;9.588;2022-08-11T00:22:43;20.23;;;18.10;;
8397;SDS011;4236;54.504;9.588;2022-08-11T00:25:14;21.23;;;18.80;;
8397;SDS011;4236;54.504;9.588;2022-08-11T00:27:42;19.43;;;17.80;;
8397;SDS011;4236;54.504;9.588;2022-08-11T00:30:11;22.27;;;19.97;;
8397;SDS011;4236;54.504;9.588;2022-08-11T00:32:40;21.63;;;17.47;;
8397;SDS011;4236;54.504;9.588;2022-08-11T00:35:10;19.73;;;17.50;;
8397;SDS011;4236;54.504;9.588;2022-08-11T00:38:03;24.30;;;20.23;;
8397;SDS011;4236;54.504;9.588;2022-08-11T00:40:41;22.07;;;19.80;;
8397;SDS011;4236;54.504;9.588;2022-08-11T00:43:16;21.53;;;19.23;;
8397;SDS011;4236;54.504;9.588;2022-08-11T00:45:54;22.67;;;20.43;;
8397;SDS011;4236;54.504;9.588;2022-08-11T00:48:35;24.90;;;22.30;;
8397;SDS011;4236;54.504;9.588;2022-08-11T00:51:12;26.00;;;23.50;;
8397;SDS011;4236;54.504;9.588;2022-08-11T00:54:18;24.77;;;21.13;;
8397;SDS011;4236;54.504;9.588;2022-08-11T00:57:18;29.60;;;25.60;;
8397;SDS011;4236;54.504;9.588;2022-08-11T01:00:05;25.17;;;22.50;;
8397;SDS011;4236;54.504;9.588;2022-08-11T01:05:35;26.60;;;23.83;;
8397;SDS011;4236;54.504;9.588;2022-08-11T01:14:30;25.30;;;22.47;;
8397;SDS011;4236;54.504;9.588;2022-08-11T01:20:41;29.27;;;24.10;;
8397;SDS011;4236;54.504;9.588;2022-08-11T01:29:55;27.27;;;24.47;;
8397;SDS011;4236;54.504;9.588;2022-08-11T01:32:53;28.80;;;23.80;;
8397;SDS011;4236;54.504;9.588;2022-08-11T01:35:41;26.27;;;23.60;;
8397;SDS011;4236;54.504;9.588;2022-08-11T01:44:52;27.97;;;23.90;;
8397;SDS011;4236;54.504;9.588;2022-08-11T01:47:33;31.50;;;26.17;;
8397;SDS011;4236;54.504;9.588;2022-08-11T01:50:22;28.23;;;25.13;;
8397;SDS011;4236;54.504;9.588;2022-08-11T01:53:00;28.77;;;25.77;;
8397;SDS011;4236;54.504;9.588;2022-08-11T01:55:39;30.60;;;24.37;;
8397;SDS011;4236;54.504;9.588;2022-08-11T01:58:19;21.63;;;19.60;;
8397;SDS011;4236;54.504;9.588;2022-08-11T02:01:11;29.03;;;25.87;;
8397;SDS011;4236;54.504;9.588;2022-08-11T02:03:48;29.20;;;25.80;;
8397;SDS011;4236;54.504;9.588;2022-08-11T02:06:25;30.03;;;26.43;;
8397;SDS011;4236;54.504;9.588;2022-08-11T02:09:23;30.43;;;27.37;;
8397;SDS011;4236;54.504;9.588;2022-08-11T02:12:01;33.30;;;29.97;;
8397;SDS011;4236;54.504;9.588;2022-08-11T02:14:41;37.60;;;28.93;;
8397;SDS011;4236;54.504;9.588;2022-08-11T02:17:35;35.53;;;29.07;;
8397;SDS011;4236;54.504;9.588;2022-08-11T02:20:09;34.43;;;30.70;;
8397;SDS011;4236;54.504;9.588;2022-08-11T02:23:03;34.43;;;30.33;;
8397;SDS011;4236;54.504;9.588;2022-08-11T02:26:20;27.87;;;23.90;;
8397;SDS011;4236;54.504;9.588;2022-08-11T02:28:54;30.30;;;25.57;;
8397;SDS011;4236;54.504;9.588;2022-08-11T02:31:37;23.10;;;20.57;;
8397;SDS011;4236;54.504;9.588;2022-08-11T02:34:51;27.33;;;19.73;;
8397;SDS011;4236;54.504;9.588;2022-08-11T02:37:26;27.83;;;23.57;;
8397;SDS011;4236;54.504;9.588;2022-08-11T02:40:09;21.43;;;19.43;;
8397;SDS011;4236;54.504;9.588;2022-08-11T02:42:50;21.53;;;19.40;;
8397;SDS011;4236;54.504;9.588;2022-08-11T02:45:41;20.60;;;18.47;;
8397;SDS011;4236;54.504;9.588;2022-08-11T02:48:24;19.97;;;17.97;;
8397;SDS011;4236;54.504;9.588;2022-08-11T02:51:19;19.87;;;17.77;;
8397;SDS011;4236;54.504;9.588;2022-08-11T02:53:57;18.60;;;16.80;;
8397;SDS011;4236;54.504;9.588;2022-08-11T02:56:36;22.20;;;19.90;;
8397;SDS011;4236;54.504;9.588;2022-08-11T02:59:16;22.50;;;20.03;;
8397;SDS011;4236;54.504;9.588;2022-08-11T03:02:10;24.93;;;21.07;;
8397;SDS011;4236;54.504;9.588;2022-08-11T03:04:54;21.50;;;19.50;;
8397;SDS011;4236;54.504;9.588;2022-08-11T03:07:30;23.50;;;21.07;;
8397;SDS011;4236;54.504;9.588;2022-08-11T03:10:05;23.80;;;21.40;;
8397;SDS011;4236;54.504;9.588;2022-08-11T03:12:40;23.63;;;21.43;;
8397;SDS011;4236;54.504;9.588;2022-08-11T03:15:40;20.70;;;18.77;;
8397;SDS011;4236;54.504;9.588;2022-08-11T03:18:33;20.13;;;18.20;;
8397;SDS011;4236;54.504;9.588;2022-08-11T03:21:08;22.30;;;20.20;;
8397;SDS011;4236;54.504;9.588;2022-08-11T03:23:46;22.60;;;20.33;;
8397;SDS011;4236;54.504;9.588;2022-08-11T03:26:22;25.07;;;22.67;;
8397;SDS011;4236;54.504;9.588;2022-08-11T03:28:59;24.30;;;21.90;;
8397;SDS011;4236;54.504;9.588;2022-08-11T03:31:35;27.13;;;24.33;;
8397;SDS011;4236;54.504;9.588;2022-08-11T03:34:12;24.03;;;21.90;;
8397;SDS011;4236;54.504;9.588;2022-08-11T03:36:58;24.73;;;22.30;;
8397;SDS011;4236;54.504;9.588;2022-08-11T03:39:48;25.67;;;23.30;;
8397;SDS011;4236;54.504;9.588;2022-08-11T03:42:27;21.53;;;19.43;;
8397;SDS011;4236;54.504;9.588;2022-08-11T03:45:14;24.83;;;21.80;;
8397;SDS011;4236;54.504;9.588;2022-08-11T03:47:52;25.57;;;23.07;;
8397;SDS011;4236;54.504;9.588;2022-08-11T03:53:37;26.97;;;24.20;;
8397;SDS011;4236;54.504;9.588;2022-08-11T03:59:39;25.63;;;23.13;;
8397;SDS011;4236;54.504;9.588;2022-08-11T04:02:54;28.93;;;25.80;;
8397;SDS011;4236;54.504;9.588;2022-08-11T04:08:54;27.23;;;24.33;;
8397;SDS011;4236;54.504;9.588;2022-08-11T04:11:53;25.10;;;22.60;;
8397;SDS011;4236;54.504;9.588;2022-08-11T04:15:12;26.30;;;23.50;;
8397;SDS011;4236;54.504;9.588;2022-08-11T04:18:19;33.93;;;28.80;;
8397;SDS011;4236;54.504;9.588;2022-08-11T04:21:14;56.03;;;34.47;;
8397;SDS011;4236;54.504;9.588;2022-08-11T04:24:18;57.37;;;31.67;;
8397;SDS011;4236;54.504;9.588;2022-08-11T04:27:13;125.50;;;33.83;;
8397;SDS011;4236;54.504;9.588;2022-08-11T04:30:05;91.23;;;31.43;;
8397;SDS011;4236;54.504;9.588;2022-08-11T04:32:47;349.90;;;55.07;;
8397;SDS011;4236;54.504;9.588;2022-08-11T04:35:33;295.37;;;47.10;;
8397;SDS011;4236;54.504;9.588;2022-08-11T04:38:24;123.43;;;34.90;;
8397;SDS011;4236;54.504;9.588;2022-08-11T04:44:06;45.07;;;26.10;;
8397;SDS011;4236;54.504;9.588;2022-08-11T04:46:55;68.73;;;30.50;;
8397;SDS011;4236;54.504;9.588;2022-08-11T04:49:37;41.73;;;27.07;;
8397;SDS011;4236;54.504;9.588;2022-08-11T04:53:04;65.47;;;28.33;;
8397;SDS011;4236;54.504;9.588;2022-08-11T04:56:02;104.80;;;33.83;;
8397;SDS011;4236;54.504;9.588;2022-08-11T04:58:59;74.80;;;34.33;;
8397;SDS011;4236;54.504;9.588;2022-08-11T05:02:21;77.40;;;34.40;;
8397;SDS011;4236;54.504;9.588;2022-08-11T05:05:14;73.63;;;36.63;;
8397;SDS011;4236;54.504;9.588;2022-08-11T05:11:13;43.30;;;28.10;;
8397;SDS011;4236;54.504;9.588;2022-08-11T05:14:19;59.07;;;29.90;;
8397;SDS011;4236;54.504;9.588;2022-08-11T05:17:13;39.50;;;29.33;;
8397;SDS011;4236;54.504;9.588;2022-08-11T05:20:08;58.67;;;27.27;;
8397;SDS011;4236;54.504;9.588;2022-08-11T05:22:54;152.60;;;35.17;;
8397;SDS011;4236;54.504;9.588;2022-08-11T05:25:44;92.70;;;30.33;;
8397;SDS011;4236;54.504;9.588;2022-08-11T05:28:54;45.37;;;21.03;;
8397;SDS011;4236;54.504;9.588;2022-08-11T05:31:54;37.50;;;23.43;;
8397;SDS011;4236;54.504;9.588;2022-08-11T05:34:43;25.17;;;17.57;;
8397;SDS011;4236;54.504;9.588;2022-08-11T05:37:17;42.33;;;18.17;;
8397;SDS011;4236;54.504;9.588;2022-08-11T05:39:55;13.10;;;12.17;;
8397;SDS011;4236;54.504;9.588;2022-08-11T05:42:47;13.50;;;12.40;;
8397;SDS011;4236;54.504;9.588;2022-08-11T05:45:35;10.57;;;9.97;;
8397;SDS011;4236;54.504;9.588;2022-08-11T05:48:31;10.83;;;10.13;;
8397;SDS011;4236;54.504;9.588;2022-08-11T05:51:18;11.00;;;10.30;;
8397;SDS011;4236;54.504;9.588;2022-08-11T05:54:06;10.70;;;10.10;;
8397;SDS011;4236;54.504;9.588;2022-08-11T05:56:55;10.13;;;9.63;;
8397;SDS011;4236;54.504;9.588;2022-08-11T05:59:24;9.47;;;8.97;;
8397;SDS011;4236;54.504;9.588;2022-08-11T06:01:59;9.03;;;8.50;;
8397;SDS011;4236;54.504;9.588;2022-08-11T06:04:28;8.97;;;8.47;;
8397;SDS011;4236;54.504;9.588;2022-08-11T06:06:57;8.50;;;8.10;;
8397;SDS011;4236;54.504;9.588;2022-08-11T06:09:29;8.73;;;8.30;;
8397;SDS011;4236;54.504;9.588;2022-08-11T06:12:01;9.30;;;8.70;;
8397;SDS011;4236;54.504;9.588;2022-08-11T06:14:30;9.30;;;8.73;;
8397;SDS011;4236;54.504;9.588;2022-08-11T06:17:02;9.07;;;8.50;;
8397;SDS011;4236;54.504;9.588;2022-08-11T06:19:34;9.00;;;8.53;;
8397;SDS011;4236;54.504;9.588;2022-08-11T06:22:05;8.97;;;8.47;;
8397;SDS011;4236;54.504;9.588;2022-08-11T06:24:36;7.90;;;7.50;;
8397;SDS011;4236;54.504;9.588;2022-08-11T06:27:06;7.77;;;7.30;;
8397;SDS011;4236;54.504;9.588;2022-08-11T06:29:45;7.63;;;7.23;;
8397;SDS011;4236;54.504;9.588;2022-08-11T06:32:23;8.03;;;7.63;;
8397;SDS011;4236;54.504;9.588;2022-08-11T06:35:06;8.50;;;8.00;;
8397;SDS011;4236;54.504;9.588;2022-08-11T06:37:44;8.03;;;7.63;;
8397;SDS011;4236;54.504;9.588;2022-08-11T06:40:25;8.40;;;7.70;;
8397;SDS011;4236;54.504;9.588;2022-08-11T06:43:03;7.43;;;7.13;;
8397;SDS011;4236;54.504;9.588;2022-08-11T06:45:45;8.50;;;7.90;;
8397;SDS011;4236;54.504;9.588;2022-08-11T06:48:19;7.93;;;7.40;;
8397;SDS011;4236;54.504;9.588;2022-08-11T06:50:49;7.30;;;6.63;;
8397;SDS011;4236;54.504;9.588;2022-08-11T06:53:38;6.97;;;6.50;;
8397;SDS011;4236;54.504;9.588;2022-08-11T06:56:29;7.20;;;6.80;;
8397;SDS011;4236;54.504;9.588;2022-08-11T06:59:36;8.10;;;7.60;;
8397;SDS011;4236;54.504;9.588;2022-08-11T07:02:42;6.05;;;5.70;;
8397;SDS011;4236;54.504;9.588;2022-08-11T07:05:18;7.20;;;6.70;;
8397;SDS011;4236;54.504;9.588;2022-08-11T07:08:05;6.43;;;5.80;;
8397;SDS011;4236;54.504;9.588;2022-08-11T07:11:15;5.90;;;5.50;;
8397;SDS011;4236;54.504;9.588;2022-08-11T07:14:24;6.33;;;6.03;;
8397;SDS011;4236;54.504;9.588;2022-08-11T07:17:14;5.27;;;4.90;;
8397;SDS011;4236;54.504;9.588;2022-08-11T07:19:47;5.03;;;4.63;;
8397;SDS011;4236;54.504;9.588;2022-08-11T07:22:37;5.20;;;5.00;;
8397;SDS011;4236;54.504;9.588;2022-08-11T07:25:30;5.07;;;4.77;;
8397;SDS011;4236;54.504;9.588;2022-08-11T07:28:20;4.50;;;4.30;;
8397;SDS011;4236;54.504;9.588;2022-08-11T07:31:08;6.20;;;5.70;;
8397;SDS011;4236;54.504;9.588;2022-08-11T07:33:40;6.00;;;5.50;;
8397;SDS011;4236;54.504;9.588;2022-08-11T07:36:31;5.90;;;5.60;;
8397;SDS011;4236;54.504;9.588;2022-08-11T07:39:01;7.00;;;6.50;;
8397;SDS011;4236;54.504;9.588;2022-08-11T07:41:30;6.00;;;5.80;;
8397;SDS011;4236;54.504;9.588;2022-08-11T07:44:01;6.40;;;6.07;;
8397;SDS011;4236;54.504;9.588;2022-08-11T07:46:35;6.40;;;5.80;;
8397;SDS011;4236;54.504;9.588;2022-08-11T07:49:26;5.03;;;4.83;;
8397;SDS011;4236;54.504;9.588;2022-08-11T07:52:13;5.60;;;5.10;;
8397;SDS011;4236;54.504;9.588;2022-08-11T07:54:59;5.50;;;5.10;;
8397;SDS011;4236;54.504;9.588;2022-08-11T07:57:29;4.63;;;4.40;;
8397;SDS011;4236;54.504;9.588;2022-08-11T08:00:35;9.53;;;4.97;;
8397;SDS011;4236;54.504;9.588;2022-08-11T08:03:24;4.30;;;4.00;;
8397;SDS011;4236;54.504;9.588;2022-08-11T08:06:20;4.17;;;3.87;;
8397;SDS011;4236;54.504;9.588;2022-08-11T08:09:06;4.20;;;3.90;;
8397;SDS011;4236;54.504;9.588;2022-08-11T08:11:54;4.80;;;3.50;;
8397;SDS011;4236;54.504;9.588;2022-08-11T08:14:39;4.47;;;4.17;;
8397;SDS011;4236;54.504;9.588;2022-08-11T08:17:26;4.30;;;3.97;;
8397;SDS011;4236;54.504;9.588;2022-08-11T08:20:34;4.20;;;4.00;;
8397;SDS011;4236;54.504;9.588;2022-08-11T08:23:04;6.70;;;4.10;;
8397;SDS011;4236;54.504;9.588;2022-08-11T08:25:33;4.63;;;4.03;;
8397;SDS011;4236;54.504;9.588;2022-08-11T08:28:06;5.97;;;4.40;;
8397;SDS011;4236;54.504;9.588;2022-08-11T08:30:35;4.90;;;4.43;;
8397;SDS011;4236;54.504;9.588;2022-08-11T08:33:13;4.93;;;4.50;;
8397;SDS011;4236;54.504;9.588;2022-08-11T08:35:43;5.90;;;4.50;;
8397;SDS011;4236;54.504;9.588;2022-08-11T08:38:21;5.27;;;4.53;;
8397;SDS011;4236;54.504;9.588;2022-08-11T08:40:49;4.53;;;4.23;;
8397;SDS011;4236;54.504;9.588;2022-08-11T08:43:23;5.90;;;4.37;;
8397;SDS011;4236;54.504;9.588;2022-08-11T08:45:52;4.87;;;4.50;;
8397;SDS011;4236;54.504;9.588;2022-08-11T08:48:23;5.50;;;4.93;;
8397;SDS011;4236;54.504;9.588;2022-08-11T08:50:54;4.70;;;4.30;;
8397;SDS011;4236;54.504;9.588;2022-08-11T08:53:47;6.00;;;4.83;;
8397;SDS011;4236;54.504;9.588;2022-08-11T08:56:24;4.33;;;3.97;;
8397;SDS011;4236;54.504;9.588;2022-08-11T08:58:55;4.20;;;3.90;;
8397;SDS011;4236;54.504;9.588;2022-08-11T09:01:27;4.40;;;4.00;;
8397;SDS011;4236;54.504;9.588;2022-08-11T09:03:56;4.30;;;4.00;;
8397;SDS011;4236;54.504;9.588;2022-08-11T09:06:34;5.30;;;4.50;;
8397;SDS011;4236;54.504;9.588;2022-08-11T09:09:05;5.30;;;4.50;;
8397;SDS011;4236;54.504;9.588;2022-08-11T09:11:34;4.40;;;4.00;;
8397;SDS011;4236;54.504;9.588;2022-08-11T09:14:20;4.00;;;3.70;;
8397;SDS011;4236;54.504;9.588;2022-08-11T09:16:50;4.00;;;3.80;;
8397;SDS011;4236;54.504;9.588;2022-08-11T09:19:19;5.30;;;3.60;;
8397;SDS011;4236;54.504;9.588;2022-08-11T09:21:48;5.00;;;3.87;;
8397;SDS011;4236;54.504;9.588;2022-08-11T09:24:38;6.20;;;3.00;;
8397;SDS011;4236;54.504;9.588;2022-08-11T09:27:23;4.20;;;3.37;;
8397;SDS011;4236;54.504;9.588;2022-08-11T09:29:54;4.70;;;3.90;;
8397;SDS011;4236;54.504;9.588;2022-08-11T09:32:22;3.90;;;3.57;;
8397;SDS011;4236;54.504;9.588;2022-08-11T09:34:50;3.93;;;3.83;;
8397;SDS011;4236;54.504;9.588;2022-08-11T09:37:20;4.23;;;3.90;;
8397;SDS011;4236;54.504;9.588;2022-08-11T09:40:21;3.57;;;3.37;;
8397;SDS011;4236;54.504;9.588;2022-08-11T09:42:58;3.40;;;3.30;;
8397;SDS011;4236;54.504;9.588;2022-08-11T09:45:48;4.80;;;4.40;;
8397;SDS011;4236;54.504;9.588;2022-08-11T09:48:17;4.80;;;3.60;;
8397;SDS011;4236;54.504;9.588;2022-08-11T09:50:47;3.53;;;3.33;;
8397;SDS011;4236;54.504;9.588;2022-08-11T09:53:16;4.53;;;4.27;;
8397;SDS011;4236;54.504;9.588;2022-08-11T09:56:04;3.77;;;3.50;;
8397;SDS011;4236;54.504;9.588;2022-08-11T09:58:54;5.00;;;3.73;;
8397;SDS011;4236;54.504;9.588;2022-08-11T10:01:24;3.57;;;3.03;;
8397;SDS011;4236;54.504;9.588;2022-08-11T10:03:57;4.47;;;4.17;;
8397;SDS011;4236;54.504;9.588;2022-08-11T10:06:27;4.50;;;3.03;;
8397;SDS011;4236;54.504;9.588;2022-08-11T10:09:20;3.70;;;3.40;;
8397;SDS011;4236;54.504;9.588;2022-08-11T10:11:51;4.07;;;3.23;;
8397;SDS011;4236;54.504;9.588;2022-08-11T10:14:23;4.77;;;3.20;;
8397;SDS011;4236;54.504;9.588;2022-08-11T10:17:12;7.10;;;3.67;;
8397;SDS011;4236;54.504;9.588;2022-08-11T10:19:42;6.20;;;4.30;;
8397;SDS011;4236;54.504;9.588;2022-08-11T10:22:29;6.00;;;3.50;;
8397;SDS011;4236;54.504;9.588;2022-08-11T10:25:15;4.17;;;3.77;;
8397;SDS011;4236;54.504;9.588;2022-08-11T10:28:02;6.40;;;3.40;;
8397;SDS011;4236;54.504;9.588;2022-08-11T10:30:50;4.30;;;3.50;;
8397;SDS011;4236;54.504;9.588;2022-08-11T10:33:40;3.50;;;3.20;;
8397;SDS011;4236;54.504;9.588;2022-08-11T10:36:27;3.70;;;3.40;;
8397;SDS011;4236;54.504;9.588;2022-08-11T10:38:56;3.80;;;3.47;;
8397;SDS011;4236;54.504;9.588;2022-08-11T10:41:25;3.70;;;3.50;;
8397;SDS011;4236;54.504;9.588;2022-08-11T10:44:34;3.67;;;3.37;;
8397;SDS011;4236;54.504;9.588;2022-08-11T10:47:04;4.07;;;3.53;;
8397;SDS011;4236;54.504;9.588;2022-08-11T10:49:52;9.43;;;3.47;;
8397;SDS011;4236;54.504;9.588;2022-08-11T10:52:35;4.33;;;3.40;;
8397;SDS011;4236;54.504;9.588;2022-08-11T10:55:21;6.67;;;3.53;;
8397;SDS011;4236;54.504;9.588;2022-08-11T10:58:07;3.57;;;3.27;;
8397;SDS011;4236;54.504;9.588;2022-08-11T11:00:53;3.60;;;3.40;;
8397;SDS011;4236;54.504;9.588;2022-08-11T11:03:24;4.10;;;3.83;;
8397;SDS011;4236;54.504;9.588;2022-08-11T11:05:55;3.80;;;3.60;;
8397;SDS011;4236;54.504;9.588;2022-08-11T11:08:48;3.83;;;3.53;;
8397;SDS011;4236;54.504;9.588;2022-08-11T11:11:27;3.30;;;3.10;;
8397;SDS011;4236;54.504;9.588;2022-08-11T11:14:17;3.60;;;3.30;;
8397;SDS011;4236;54.504;9.588;2022-08-11T11:17:14;3.03;;;2.80;;
8397;SDS011;4236;54.504;9.588;2022-08-11T11:20:04;3.87;;;3.57;;
8397;SDS011;4236;54.504;9.588;2022-08-11T11:22:56;3.73;;;3.47;;
8397;SDS011;4236;54.504;9.588;2022-08-11T11:25:33;3.57;;;3.23;;
8397;SDS011;4236;54.504;9.588;2022-08-11T11:28:33;3.40;;;3.23;;
8397;SDS011;4236;54.504;9.588;2022-08-11T11:31:17;3.73;;;3.53;;
8397;SDS011;4236;54.504;9.588;2022-08-11T11:34:00;3.73;;;3.53;;
8397;SDS011;4236;54.504;9.588;2022-08-11T11:36:43;3.30;;;3.10;;
8397;SDS011;4236;54.504;9.588;2022-08-11T11:39:17;3.77;;;3.50;;
8397;SDS011;4236;54.504;9.588;2022-08-11T11:41:47;3.13;;;3.00;;
8397;SDS011;4236;54.504;9.588;2022-08-11T11:44:15;4.87;;;4.17;;
8397;SDS011;4236;54.504;9.588;2022-08-11T11:46:44;5.30;;;3.70;;
8397;SDS011;4236;54.504;9.588;2022-08-11T11:49:12;3.70;;;3.50;;
8397;SDS011;4236;54.504;9.588;2022-08-11T11:51:43;4.20;;;3.90;;
8397;SDS011;4236;54.504;9.588;2022-08-11T11:54:16;3.90;;;3.57;;
8397;SDS011;4236;54.504;9.588;2022-08-11T11:56:48;3.57;;;3.37;;
8397;SDS011;4236;54.504;9.588;2022-08-11T11:59:18;4.50;;;4.20;;
8397;SDS011;4236;54.504;9.588;2022-08-11T12:02:05;4.70;;;4.30;;
8397;SDS011;4236;54.504;9.588;2022-08-11T12:04:38;3.23;;;3.10;;
8397;SDS011;4236;54.504;9.588;2022-08-11T12:07:08;3.97;;;3.67;;
8397;SDS011;4236;54.504;9.588;2022-08-11T12:09:56;5.93;;;3.67;;
8397;SDS011;4236;54.504;9.588;2022-08-11T12:12:25;6.37;;;3.50;;
8397;SDS011;4236;54.504;9.588;2022-08-11T12:15:10;7.00;;;3.33;;
8397;SDS011;4236;54.504;9.588;2022-08-11T12:17:39;4.10;;;3.83;;
8397;SDS011;4236;54.504;9.588;2022-08-11T12:20:07;7.23;;;3.23;;
8397;SDS011;4236;54.504;9.588;2022-08-11T12:22:55;3.53;;;3.33;;
8397;SDS011;4236;54.504;9.588;2022-08-11T12:25:42;3.50;;;3.20;;
8397;SDS011;4236;54.504;9.588;2022-08-11T12:28:48;4.17;;;3.80;;
8397;SDS011;4236;54.504;9.588;2022-08-11T12:31:17;4.07;;;3.77;;
8397;SDS011;4236;54.504;9.588;2022-08-11T12:33:50;5.40;;;3.30;;
8397;SDS011;4236;54.504;9.588;2022-08-11T12:36:19;4.23;;;3.80;;
8397;SDS011;4236;54.504;9.588;2022-08-11T12:38:48;3.50;;;3.30;;
8397;SDS011;4236;54.504;9.588;2022-08-11T12:41:20;3.40;;;3.10;;
8397;SDS011;4236;54.504;9.588;2022-08-11T12:44:06;4.90;;;3.20;;
8397;SDS011;4236;54.504;9.588;2022-08-11T12:46:55;4.27;;;3.97;;
8397;SDS011;4236;54.504;9.588;2022-08-11T12:49:25;3.57;;;3.37;;
8397;SDS011;4236;54.504;9.588;2022-08-11T12:52:16;4.47;;;4.07;;
8397;SDS011;4236;54.504;9.588;2022-08-11T12:54:49;4.20;;;3.47;;
8397;SDS011;4236;54.504;9.588;2022-08-11T12:57:26;9.10;;;3.80;;
8397;SDS011;4236;54.504;9.588;2022-08-11T13:00:15;4.47;;;3.90;;
8397;SDS011;4236;54.504;9.588;2022-08-11T13:03:01;4.37;;;3.73;;
8397;SDS011;4236;54.504;9.588;2022-08-11T13:05:50;6.90;;;3.90;;
8397;SDS011;4236;54.504;9.588;2022-08-11T13:08:22;4.93;;;4.00;;
8397;SDS011;4236;54.504;9.588;2022-08-11T13:10:51;4.03;;;3.73;;
8397;SDS011;4236;54.504;9.588;2022-08-11T13:13:40;3.00;;;2.80;;
8397;SDS011;4236;54.504;9.588;2022-08-11T13:16:22;4.13;;;3.83;;
8397;SDS011;4236;54.504;9.588;2022-08-11T13:18:51;5.20;;;4.40;;
8397;SDS011;4236;54.504;9.588;2022-08-11T13:21:20;3.70;;;3.50;;
8397;SDS011;4236;54.504;9.588;2022-08-11T13:23:48;3.97;;;3.50;;
8397;SDS011;4236;54.504;9.588;2022-08-11T13:26:28;4.57;;;3.60;;
8397;SDS011;4236;54.504;9.588;2022-08-11T13:29:20;3.30;;;3.10;;
8397;SDS011;4236;54.504;9.588;2022-08-11T13:31:51;4.00;;;3.60;;
8397;SDS011;4236;54.504;9.588;2022-08-11T13:34:22;4.97;;;3.57;;
8397;SDS011;4236;54.504;9.588;2022-08-11T13:36:52;3.53;;;3.23;;
8397;SDS011;4236;54.504;9.588;2022-08-11T13:39:22;6.50;;;4.00;;
8397;SDS011;4236;54.504;9.588;2022-08-11T13:41:52;4.03;;;3.60;;
8397;SDS011;4236;54.504;9.588;2022-08-11T13:44:24;4.07;;;3.77;;
8397;SDS011;4236;54.504;9.588;2022-08-11T13:46:53;9.63;;;3.23;;
8397;SDS011;4236;54.504;9.588;2022-08-11T13:49:24;4.50;;;4.20;;
8397;SDS011;4236;54.504;9.588;2022-08-11T13:51:52;5.00;;;3.20;;
8397;SDS011;4236;54.504;9.588;2022-08-11T13:54:23;5.97;;;3.67;;
8397;SDS011;4236;54.504;9.588;2022-08-11T13:56:53;6.27;;;3.80;;
8397;SDS011;4236;54.504;9.588;2022-08-11T13:59:24;5.60;;;3.60;;
8397;SDS011;4236;54.504;9.588;2022-08-11T14:01:57;3.70;;;3.50;;
8397;SDS011;4236;54.504;9.588;2022-08-11T14:04:49;3.83;;;3.50;;
8397;SDS011;4236;54.504;9.588;2022-08-11T14:07:22;5.73;;;3.77;;
8397;SDS011;4236;54.504;9.588;2022-08-11T14:09:55;3.80;;;3.70;;
8397;SDS011;4236;54.504;9.588;2022-08-11T14:12:25;3.30;;;3.10;;
8397;SDS011;4236;54.504;9.588;2022-08-11T14:15:15;9.47;;;4.37;;
8397;SDS011;4236;54.504;9.588;2022-08-11T14:17:46;3.77;;;3.57;;
8397;SDS011;4236;54.504;9.588;2022-08-11T14:20:18;4.13;;;3.80;;
8397;SDS011;4236;54.504;9.588;2022-08-11T14:23:06;4.20;;;3.80;;
8397;SDS011;4236;54.504;9.588;2022-08-11T14:25:36;4.07;;;3.77;;
8397;SDS011;4236;54.504;9.588;2022-08-11T14:28:28;4.10;;;3.80;;
8397;SDS011;4236;54.504;9.588;2022-08-11T14:31:08;3.67;;;3.40;;
8397;SDS011;4236;54.504;9.588;2022-08-11T14:33:36;4.00;;;3.60;;
8397;SDS011;4236;54.504;9.588;2022-08-11T14:36:25;4.20;;;3.90;;
8397;SDS011;4236;54.504;9.588;2022-08-11T14:38:54;3.93;;;3.63;;
8397;SDS011;4236;54.504;9.588;2022-08-11T14:41:22;5.93;;;4.00;;
8397;SDS011;4236;54.504;9.588;2022-08-11T14:44:29;4.07;;;3.67;;
8397;SDS011;4236;54.504;9.588;2022-08-11T14:47:17;4.10;;;3.13;;
8397;SDS011;4236;54.504;9.588;2022-08-11T14:49:50;10.13;;;3.77;;
8397;SDS011;4236;54.504;9.588;2022-08-11T14:52:36;5.40;;;3.33;;
8397;SDS011;4236;54.504;9.588;2022-08-11T14:55:05;4.20;;;3.50;;
8397;SDS011;4236;54.504;9.588;2022-08-11T14:58:00;6.03;;;3.30;;
8397;SDS011;4236;54.504;9.588;2022-08-11T15:00:29;3.90;;;3.20;;
8397;SDS011;4236;54.504;9.588;2022-08-11T15:03:00;4.83;;;3.10;;
8397;SDS011;4236;54.504;9.588;2022-08-11T15:05:44;3.13;;;3.03;;
8397;SDS011;4236;54.504;9.588;2022-08-11T15:08:24;2.97;;;2.70;;
8397;SDS011;4236;54.504;9.588;2022-08-11T15:11:07;3.23;;;3.03;;
8397;SDS011;4236;54.504;9.588;2022-08-11T15:13:57;4.43;;;3.20;;
8397;SDS011;4236;54.504;9.588;2022-08-11T15:16:26;3.70;;;3.40;;
8397;SDS011;4236;54.504;9.588;2022-08-11T15:19:13;3.30;;;2.97;;
8397;SDS011;4236;54.504;9.588;2022-08-11T15:21:44;4.60;;;3.30;;
8397;SDS011;4236;54.504;9.588;2022-08-11T15:24:30;3.03;;;2.93;;
8397;SDS011;4236;54.504;9.588;2022-08-11T15:27:00;3.13;;;2.83;;
8397;SDS011;4236;54.504;9.588;2022-08-11T15:29:49;2.83;;;2.73;;
8397;SDS011;4236;54.504;9.588;2022-08-11T15:32:56;3.57;;;3.20;;
8397;SDS011;4236;54.504;9.588;2022-08-11T15:35:43;3.37;;;3.17;;
8397;SDS011;4236;54.504;9.588;2022-08-11T15:38:29;2.97;;;2.70;;
8397;SDS011;4236;54.504;9.588;2022-08-11T15:41:01;3.07;;;2.87;;
8397;SDS011;4236;54.504;9.588;2022-08-11T15:43:51;3.20;;;3.00;;
8397;SDS011;4236;54.504;9.588;2022-08-11T15:46:39;3.07;;;2.87;;
8397;SDS011;4236;54.504;9.588;2022-08-11T15:49:10;3.63;;;3.30;;
8397;SDS011;4236;54.504;9.588;2022-08-11T15:51:49;3.03;;;2.73;;
8397;SDS011;4236;54.504;9.588;2022-08-11T15:54:28;3.00;;;2.80;;
8397;SDS011;4236;54.504;9.588;2022-08-11T15:56:58;3.50;;;3.20;;
8397;SDS011;4236;54.504;9.588;2022-08-11T15:59:28;4.90;;;2.90;;
8397;SDS011;4236;54.504;9.588;2022-08-11T16:02:18;4.27;;;3.37;;
8397;SDS011;4236;54.504;9.588;2022-08-11T16:05:07;3.07;;;2.70;;
8397;SDS011;4236;54.504;9.588;2022-08-11T16:08:00;3.23;;;2.63;;
8397;SDS011;4236;54.504;9.588;2022-08-11T16:10:29;4.60;;;3.27;;
8397;SDS011;4236;54.504;9.588;2022-08-11T16:12:59;4.70;;;2.87;;
8397;SDS011;4236;54.504;9.588;2022-08-11T16:15:44;3.50;;;3.20;;
8397;SDS011;4236;54.504;9.588;2022-08-11T16:18:35;7.60;;;3.40;;
8397;SDS011;4236;54.504;9.588;2022-08-11T16:21:10;5.23;;;3.23;;
8397;SDS011;4236;54.504;9.588;2022-08-11T16:24:02;3.20;;;3.00;;
8397;SDS011;4236;54.504;9.588;2022-08-11T16:26:32;3.90;;;2.80;;
8397;SDS011;4236;54.504;9.588;2022-08-11T16:29:24;4.40;;;3.00;;
8397;SDS011;4236;54.504;9.588;2022-08-11T16:31:53;3.33;;;3.13;;
8397;SDS011;4236;54.504;9.588;2022-08-11T16:34:40;2.80;;;2.60;;
8397;SDS011;4236;54.504;9.588;2022-08-11T16:37:27;3.37;;;3.07;;
8397;SDS011;4236;54.504;9.588;2022-08-11T16:40:15;3.50;;;2.70;;
8397;SDS011;4236;54.504;9.588;2022-08-11T16:42:45;2.77;;;2.57;;
8397;SDS011;4236;54.504;9.588;2022-08-11T16:45:36;6.27;;;2.83;;
8397;SDS011;4236;54.504;9.588;2022-08-11T16:48:23;4.07;;;3.33;;
8397;SDS011;4236;54.504;9.588;2022-08-11T16:51:03;3.60;;;2.97;;
8397;SDS011;4236;54.504;9.588;2022-08-11T16:53:31;4.47;;;3.37;;
8397;SDS011;4236;54.504;9.588;2022-08-11T16:56:20;3.03;;;2.83;;
8397;SDS011;4236;54.504;9.588;2022-08-11T16:58:52;3.30;;;3.00;;
8397;SDS011;4236;54.504;9.588;2022-08-11T17:01:41;4.37;;;3.17;;
8397;SDS011;4236;54.504;9.588;2022-08-11T17:04:15;2.97;;;2.70;;
8397;SDS011;4236;54.504;9.588;2022-08-11T17:07:04;3.17;;;2.97;;
8397;SDS011;4236;54.504;9.588;2022-08-11T17:10:10;3.40;;;3.10;;
8397;SDS011;4236;54.504;9.588;2022-08-11T17:13:21;3.90;;;2.80;;
8397;SDS011;4236;54.504;9.588;2022-08-11T17:15:55;2.97;;;2.67;;
8397;SDS011;4236;54.504;9.588;2022-08-11T17:18:46;3.10;;;2.90;;